Terminal Aerodrome Forecast
Issued by NWS

Home | Current Version | Previous Version | Text Only | Print | Product List | Glossary On
Versions: 1 2 3 4 5 6 7 8 9 10 11 12 13
000
FTUS45 KRIW 182322
TAFBPI
TAF
KBPI 182322Z 1900/1924 25014G22KT P6SM SCT060 BKN110
     FM190400 30012G20KT P6SM VCSH OVC035
     FM191000 31015G25KT P6SM -SHRA OVC026
     FM191600 31020G30KT 5SM -RASN OVC020
     FM192000 30020G30KT P6SM -SN OVC040=

USA.gov is the U.S. government's official web portal to all federal, state and local government web resources and services.